createdAt,value
2019-02-27T00:01:31.022Z,3.37
2019-02-27T00:03:59.849Z,3.23
2019-02-27T00:06:26.350Z,3.93
2019-02-27T00:08:52.633Z,4.13
2019-02-27T00:11:18.938Z,3.67
2019-02-27T00:13:45.561Z,3.00
2019-02-27T00:16:12.200Z,3.73
2019-02-27T00:18:38.482Z,3.80
2019-02-27T00:21:04.869Z,3.13
2019-02-27T00:23:31.146Z,4.47
2019-02-27T00:25:57.455Z,3.00
2019-02-27T00:28:24.354Z,3.50
2019-02-27T00:30:51.026Z,3.47
2019-02-27T00:33:17.289Z,2.70
2019-02-27T00:35:43.558Z,3.30
2019-02-27T00:38:09.832Z,2.80
2019-02-27T00:40:39.346Z,3.00
2019-02-27T00:43:04.452Z,3.27
2019-02-27T00:45:30.710Z,3.93
2019-02-27T00:47:57.003Z,4.10
2019-02-27T00:50:23.265Z,3.33
2019-02-27T00:52:51.068Z,4.37
2019-02-27T00:55:18.243Z,4.00
2019-02-27T00:57:44.885Z,4.10
2019-02-27T01:00:14.014Z,3.27
2019-02-27T01:02:40.670Z,2.80
2019-02-27T01:05:09.142Z,3.20
2019-02-27T01:07:35.360Z,3.40
2019-02-27T01:10:02.157Z,3.23
2019-02-27T01:12:28.446Z,3.20
2019-02-27T01:14:54.739Z,3.07
2019-02-27T01:17:23.883Z,3.90
2019-02-27T01:19:49.477Z,3.70
2019-02-27T01:22:15.746Z,3.37
2019-02-27T01:24:42.406Z,4.43
2019-02-27T01:27:08.683Z,4.87
2019-02-27T01:29:35.138Z,4.07
2019-02-27T01:32:01.773Z,3.77
2019-02-27T01:34:28.054Z,3.80
2019-02-27T01:36:57.600Z,4.50
2019-02-27T01:39:22.838Z,4.40
2019-02-27T01:41:49.130Z,3.73
2019-02-27T01:44:15.415Z,3.27
2019-02-27T01:46:41.730Z,3.63
2019-02-27T01:49:08.353Z,3.43
2019-02-27T01:51:34.672Z,4.67
2019-02-27T01:54:01.039Z,4.23
2019-02-27T01:56:29.078Z,3.90
2019-02-27T01:58:55.372Z,3.27
2019-02-27T02:01:21.629Z,4.50
2019-02-27T02:03:48.146Z,4.33
2019-02-27T02:06:14.386Z,3.53
2019-02-27T02:08:40.804Z,4.43
2019-02-27T02:11:07.690Z,3.63
2019-02-27T02:13:37.747Z,4.33
2019-02-27T02:16:22.961Z,3.67
2019-02-27T02:19:08.062Z,4.63
2019-02-27T02:21:43.916Z,3.13
2019-02-27T02:24:12.486Z,4.60
2019-02-27T02:26:51.425Z,4.50
2019-02-27T02:29:39.576Z,3.43
2019-02-27T02:32:33.693Z,3.67
2019-02-27T02:35:14.629Z,3.17
2019-02-27T02:37:41.434Z,4.80
2019-02-27T02:40:34.375Z,3.77
2019-02-27T02:43:19.643Z,3.17
2019-02-27T02:45:55.511Z,3.27
2019-02-27T02:48:41.962Z,5.43
2019-02-27T02:51:10.501Z,4.50
2019-02-27T02:53:48.979Z,4.50
2019-02-27T02:56:23.710Z,4.37
2019-02-27T02:59:06.440Z,3.27
2019-02-27T03:01:35.228Z,3.43
2019-02-27T03:04:15.857Z,3.47
2019-02-27T03:06:54.760Z,3.10
2019-02-27T03:09:35.263Z,4.30
2019-02-27T03:12:21.794Z,3.00
2019-02-27T03:14:57.903Z,2.70
2019-02-27T03:17:26.577Z,2.87
2019-02-27T03:20:01.133Z,4.67
2019-02-27T03:22:31.257Z,4.03
2019-02-27T03:25:10.236Z,3.23
2019-02-27T03:28:07.429Z,3.63
2019-02-27T03:30:36.845Z,3.67
2019-02-27T03:33:23.194Z,3.17
2019-02-27T03:35:52.730Z,3.40
2019-02-27T03:38:40.945Z,3.40
2019-02-27T03:41:32.023Z,3.97
2019-02-27T03:44:20.280Z,3.67
2019-02-27T03:46:47.556Z,4.10
2019-02-27T03:49:23.568Z,6.63
2019-02-27T03:52:10.078Z,4.93
2019-02-27T03:54:44.398Z,4.37
2019-02-27T03:57:20.545Z,4.83
2019-02-27T04:00:22.967Z,4.17
2019-02-27T04:02:51.500Z,4.20
2019-02-27T04:05:27.386Z,3.87
2019-02-27T04:08:30.565Z,4.03
2019-02-27T04:10:58.218Z,4.03
2019-02-27T04:13:27.782Z,4.40
2019-02-27T04:15:53.774Z,4.13
2019-02-27T04:18:20.431Z,5.27
2019-02-27T04:20:49.756Z,5.13
2019-02-27T04:23:14.764Z,5.13
2019-02-27T04:25:41.387Z,5.73
2019-02-27T04:28:08.046Z,4.00
2019-02-27T04:30:34.422Z,3.87
2019-02-27T04:33:01.067Z,3.67
2019-02-27T04:35:27.334Z,3.67
2019-02-27T04:37:54.276Z,6.50
2019-02-27T04:40:21.063Z,3.87
2019-02-27T04:42:47.378Z,4.70
2019-02-27T04:45:14.021Z,4.83
2019-02-27T04:47:40.636Z,3.60
2019-02-27T04:50:11.143Z,3.50
2019-02-27T04:52:36.569Z,4.80
2019-02-27T04:55:04.037Z,4.23
2019-02-27T04:57:30.784Z,4.83
2019-02-27T04:59:59.121Z,3.40
2019-02-27T05:02:25.370Z,4.73
2019-02-27T05:04:52.052Z,4.50
2019-02-27T05:07:20.348Z,4.40
2019-02-27T05:09:46.739Z,5.53
2019-02-27T05:12:13.055Z,4.23
2019-02-27T05:14:39.689Z,4.73
2019-02-27T05:17:06.094Z,5.97
2019-02-27T05:19:32.377Z,4.40
2019-02-27T05:22:01.227Z,4.33
2019-02-27T05:24:27.719Z,4.47
2019-02-27T05:26:54.009Z,4.30
2019-02-27T05:29:20.649Z,4.23
2019-02-27T05:31:46.958Z,5.43
2019-02-27T05:34:13.739Z,4.40
2019-02-27T05:36:39.990Z,4.30
2019-02-27T05:39:06.778Z,5.47
2019-02-27T05:41:34.626Z,4.63
2019-02-27T05:44:01.289Z,4.80
2019-02-27T05:46:27.951Z,5.20
2019-02-27T05:48:54.246Z,5.67
2019-02-27T05:51:20.873Z,6.30
2019-02-27T05:53:47.502Z,6.63
2019-02-27T05:56:16.325Z,5.97
2019-02-27T05:58:41.860Z,5.33
2019-02-27T06:01:08.518Z,5.60
2019-02-27T06:03:34.778Z,6.30
2019-02-27T06:06:01.433Z,6.27
2019-02-27T06:08:28.050Z,5.90
2019-02-27T06:10:55.999Z,4.87
2019-02-27T06:13:22.971Z,7.00
2019-02-27T06:15:49.543Z,6.40
2019-02-27T06:18:16.172Z,6.23
2019-02-27T06:20:42.781Z,5.63
2019-02-27T06:23:09.451Z,6.20
2019-02-27T06:25:35.719Z,5.20
2019-02-27T06:28:02.393Z,5.30
2019-02-27T06:30:30.665Z,5.67
2019-02-27T06:32:57.198Z,4.33
2019-02-27T06:35:23.466Z,5.87
2019-02-27T06:37:50.696Z,4.77
2019-02-27T06:40:18.482Z,6.53
2019-02-27T06:42:45.193Z,7.13
2019-02-27T06:45:13.289Z,6.60
2019-02-27T06:47:39.845Z,5.90
2019-02-27T06:50:07.968Z,7.93
2019-02-27T06:52:34.218Z,6.67
2019-02-27T06:55:00.519Z,5.97
2019-02-27T06:57:27.158Z,5.17
2019-02-27T06:59:53.807Z,6.50
2019-02-27T07:02:21.729Z,6.13
2019-02-27T07:04:48.844Z,6.10
2019-02-27T07:07:15.126Z,7.13
2019-02-27T07:09:43.222Z,7.80
2019-02-27T07:12:09.758Z,6.57
2019-02-27T07:14:39.098Z,5.73
2019-02-27T07:17:05.181Z,5.97
2019-02-27T07:19:31.838Z,5.27
2019-02-27T07:21:58.627Z,6.10
2019-02-27T07:24:25.811Z,5.97
2019-02-27T07:26:52.450Z,5.17
2019-02-27T07:29:21.894Z,6.50
2019-02-27T07:31:49.520Z,5.17
2019-02-27T07:34:15.644Z,6.40
2019-02-27T07:36:42.359Z,4.67
2019-02-27T07:39:09.068Z,6.50
2019-02-27T07:41:35.995Z,6.17
2019-02-27T07:44:02.738Z,6.60
2019-02-27T07:46:29.385Z,6.63
2019-02-27T07:48:57.284Z,6.30
2019-02-27T07:51:23.937Z,5.73
2019-02-27T07:53:51.365Z,6.40
2019-02-27T07:56:18.718Z,5.93
2019-02-27T07:58:45.354Z,4.70
2019-02-27T08:01:12.095Z,5.37
2019-02-27T08:03:38.694Z,4.83
2019-02-27T08:06:05.005Z,5.67
2019-02-27T08:08:31.609Z,4.87
2019-02-27T08:10:58.088Z,5.70
2019-02-27T08:13:27.022Z,4.77
2019-02-27T08:15:53.417Z,5.00
2019-02-27T08:18:29.573Z,6.20
2019-02-27T08:20:48.853Z,5.23
2019-02-27T08:23:15.652Z,10.10
2019-02-27T08:25:41.999Z,7.47
2019-02-27T08:28:08.307Z,5.67
2019-02-27T08:30:35.013Z,8.10
2019-02-27T08:33:01.677Z,10.97
2019-02-27T08:35:28.221Z,6.37
2019-02-27T08:38:02.212Z,5.77
2019-02-27T08:40:25.183Z,5.50
2019-02-27T08:42:51.337Z,6.00
2019-02-27T08:45:20.844Z,5.47
2019-02-27T08:47:47.340Z,5.00
2019-02-27T08:50:16.240Z,6.50
2019-02-27T08:52:44.385Z,7.73
2019-02-27T08:55:18.847Z,6.33
2019-02-27T08:57:40.605Z,6.77
2019-02-27T09:00:14.238Z,8.67
2019-02-27T09:02:39.701Z,6.33
2019-02-27T09:05:07.302Z,6.17
2019-02-27T09:07:33.951Z,4.13
2019-02-27T09:10:02.918Z,5.03
2019-02-27T09:12:29.214Z,4.50
2019-02-27T09:14:56.003Z,5.07
2019-02-27T09:17:26.931Z,3.77
2019-02-27T09:19:50.757Z,3.70
2019-02-27T09:22:17.406Z,2.97
2019-02-27T09:24:43.670Z,3.13
2019-02-27T09:27:10.306Z,4.43
2019-02-27T09:29:36.571Z,2.97
2019-02-27T09:32:03.237Z,3.53
2019-02-27T09:34:29.869Z,3.43
2019-02-27T09:36:56.487Z,3.53
2019-02-27T09:39:23.095Z,3.10
2019-02-27T09:41:51.194Z,2.93
2019-02-27T09:46:43.895Z,2.93
2019-02-27T09:49:10.182Z,3.07
2019-02-27T09:51:36.526Z,3.57
2019-02-27T09:54:03.233Z,3.27
2019-02-27T09:56:29.839Z,3.50
2019-02-27T09:58:56.102Z,3.47
2019-02-27T10:01:22.746Z,6.40
2019-02-27T10:03:52.028Z,6.00
2019-02-27T10:06:17.512Z,4.53
2019-02-27T10:08:43.760Z,4.60
2019-02-27T10:11:10.425Z,5.47
2019-02-27T10:13:37.909Z,5.20
2019-02-27T10:16:04.849Z,4.93
2019-02-27T10:18:31.461Z,5.07
2019-02-27T10:20:58.205Z,5.17
2019-02-27T10:23:24.836Z,6.93
2019-02-27T10:25:51.473Z,4.00
2019-02-27T10:28:17.733Z,4.00
2019-02-27T10:30:46.895Z,4.93
2019-02-27T10:33:12.789Z,7.07
2019-02-27T10:35:39.413Z,6.30
2019-02-27T10:38:05.706Z,5.20
2019-02-27T10:40:32.359Z,5.07
2019-02-27T10:42:58.665Z,5.63
2019-02-27T10:45:25.382Z,4.77
2019-02-27T10:47:52.137Z,5.90
2019-02-27T10:50:18.862Z,4.20
2019-02-27T10:52:45.166Z,3.57
2019-02-27T10:55:15.380Z,2.73
2019-02-27T10:57:42.009Z,3.27
2019-02-27T11:00:13.338Z,3.17
2019-02-27T11:02:39.966Z,2.90
2019-02-27T11:05:06.702Z,3.03
2019-02-27T11:07:32.962Z,2.70
2019-02-27T11:09:59.605Z,1.97
2019-02-27T11:12:26.895Z,2.63
2019-02-27T11:14:54.663Z,2.73
2019-02-27T11:17:20.936Z,2.40
2019-02-27T11:19:47.607Z,3.27
2019-02-27T11:22:13.864Z,2.30
2019-02-27T11:24:40.490Z,2.83
2019-02-27T11:27:06.896Z,2.30
2019-02-27T11:29:33.243Z,2.43
2019-02-27T11:31:59.890Z,2.83
2019-02-27T11:34:26.154Z,2.73
2019-02-27T11:36:52.818Z,1.90
2019-02-27T11:39:19.433Z,2.17
2019-02-27T11:41:48.377Z,1.93
2019-02-27T11:44:14.944Z,2.13
2019-02-27T11:46:41.527Z,1.77
2019-02-27T11:49:07.793Z,1.50
2019-02-27T11:51:34.080Z,1.93
2019-02-27T11:54:00.705Z,1.43
2019-02-27T11:56:27.361Z,1.67
2019-02-27T11:58:54.003Z,1.40
2019-02-27T12:01:22.132Z,1.40
2019-02-27T12:03:48.547Z,1.50
2019-02-27T12:06:15.165Z,1.20
2019-02-27T12:08:41.793Z,1.57
2019-02-27T12:11:09.781Z,1.20
2019-02-27T12:13:36.652Z,1.20
2019-02-27T12:16:04.587Z,2.37
2019-02-27T12:18:34.538Z,1.13
2019-02-27T12:20:59.672Z,1.87
2019-02-27T12:23:26.285Z,0.70
2019-02-27T12:25:52.574Z,1.43
2019-02-27T12:28:19.042Z,1.40
2019-02-27T12:30:45.778Z,0.90
2019-02-27T12:33:12.395Z,0.63
2019-02-27T12:35:39.281Z,0.50
2019-02-27T12:38:08.267Z,0.60
2019-02-27T12:40:34.412Z,0.70
2019-02-27T12:43:00.691Z,0.77
2019-02-27T12:45:29.726Z,0.73
2019-02-27T12:47:56.262Z,0.83
2019-02-27T12:50:26.925Z,1.30
2019-02-27T12:52:51.682Z,0.60
2019-02-27T12:55:20.358Z,0.70
2019-02-27T12:57:49.550Z,0.43
2019-02-27T13:00:17.282Z,3.03
2019-02-27T13:02:43.846Z,2.10
2019-02-27T13:05:12.012Z,1.13
2019-02-27T13:07:38.646Z,0.90
2019-02-27T13:10:08.542Z,0.90
2019-02-27T13:12:37.204Z,1.13
2019-02-27T13:15:07.397Z,0.77
2019-02-27T13:17:33.430Z,0.70
2019-02-27T13:19:59.702Z,0.73
2019-02-27T13:22:26.245Z,0.60
2019-02-27T13:24:54.394Z,0.97
2019-02-27T13:27:21.042Z,0.73
2019-02-27T13:29:47.345Z,0.83
2019-02-27T13:32:13.650Z,0.80
2019-02-27T13:34:39.908Z,0.97
2019-02-27T13:37:06.912Z,0.70
2019-02-27T13:39:34.977Z,0.93
2019-02-27T13:42:01.244Z,1.03
2019-02-27T13:44:27.490Z,1.17
2019-02-27T13:46:56.644Z,1.00
2019-02-27T13:49:22.274Z,0.90
2019-02-27T13:51:48.531Z,0.80
2019-02-27T13:54:15.204Z,1.53
2019-02-27T13:56:41.461Z,1.40
2019-02-27T13:59:10.892Z,1.30
2019-02-27T14:01:36.182Z,1.43
2019-02-27T14:04:02.965Z,2.27
2019-02-27T14:06:29.590Z,2.87
2019-02-27T14:08:56.236Z,1.77
2019-02-27T14:11:24.920Z,1.93
2019-02-27T14:13:51.173Z,2.00
2019-02-27T14:16:17.805Z,1.60
2019-02-27T14:18:44.066Z,2.43
2019-02-27T14:21:10.553Z,2.70
2019-02-27T14:23:37.153Z,2.93
2019-02-27T14:26:06.331Z,4.77
2019-02-27T14:28:32.321Z,2.20
2019-02-27T14:30:58.611Z,3.03
2019-02-27T14:33:24.874Z,2.13
2019-02-27T14:35:51.529Z,1.97
2019-02-27T14:38:17.894Z,2.53
2019-02-27T14:40:44.633Z,2.13
2019-02-27T14:43:10.805Z,2.73
2019-02-27T14:45:40.846Z,1.55
2019-02-27T14:48:05.639Z,1.87
2019-02-27T14:50:34.575Z,3.23
2019-02-27T14:53:00.794Z,1.90
2019-02-27T14:55:27.052Z,2.40
2019-02-27T14:57:53.726Z,5.63
2019-02-27T15:00:27.414Z,3.13
2019-02-27T15:02:55.634Z,3.20
2019-02-27T15:07:58.845Z,2.17
2019-02-27T15:10:25.566Z,4.30
2019-02-27T15:12:55.070Z,2.60
2019-02-27T15:15:22.676Z,2.97
2019-02-27T15:17:51.231Z,2.47
2019-02-27T15:20:21.771Z,4.30
2019-02-27T15:22:48.377Z,3.13
2019-02-27T15:25:16.030Z,1.83
2019-02-27T15:27:42.801Z,2.73
2019-02-27T15:30:13.132Z,2.87
2019-02-27T15:32:40.047Z,3.50
2019-02-27T15:35:08.550Z,3.20
2019-02-27T15:37:37.438Z,4.17
2019-02-27T15:40:08.286Z,2.97
2019-02-27T15:42:34.550Z,3.77
2019-02-27T15:45:00.884Z,3.40
2019-02-27T15:47:30.310Z,2.63
2019-02-27T15:49:55.674Z,2.83
2019-02-27T15:52:21.910Z,2.93
2019-02-27T15:54:48.198Z,4.63
2019-02-27T15:57:17.331Z,2.63
2019-02-27T15:59:42.898Z,3.10
2019-02-27T16:02:09.187Z,3.17
2019-02-27T16:04:35.806Z,3.73
2019-02-27T16:07:02.451Z,2.80
2019-02-27T16:09:29.065Z,3.00
2019-02-27T16:11:56.809Z,2.00
2019-02-27T16:14:23.077Z,3.37
2019-02-27T16:16:49.687Z,2.77
2019-02-27T16:19:16.310Z,4.97
2019-02-27T16:21:43.251Z,4.47
2019-02-27T16:24:10.243Z,2.27
2019-02-27T16:26:36.937Z,3.27
2019-02-27T16:29:03.250Z,2.67
2019-02-27T16:31:29.507Z,3.23
2019-02-27T16:33:58.529Z,2.60
2019-02-27T16:36:24.591Z,4.80
2019-02-27T16:38:50.884Z,2.30
2019-02-27T16:41:17.538Z,2.37
2019-02-27T16:43:47.649Z,4.00
2019-02-27T16:46:12.537Z,2.73
2019-02-27T16:48:39.162Z,2.77
2019-02-27T16:51:05.786Z,2.70
2019-02-27T16:53:33.297Z,4.33
2019-02-27T16:55:59.959Z,4.30
2019-02-27T16:58:32.554Z,4.07
2019-02-27T17:00:55.560Z,3.03
2019-02-27T17:03:22.106Z,3.27
2019-02-27T17:05:49.786Z,3.77
2019-02-27T17:08:16.445Z,3.27
2019-02-27T17:10:43.097Z,5.77
2019-02-27T17:13:14.399Z,2.87
2019-02-27T17:15:39.978Z,4.77
2019-02-27T17:18:06.535Z,4.43
2019-02-27T17:20:33.026Z,2.43
2019-02-27T17:22:59.310Z,2.90
2019-02-27T17:25:28.652Z,3.37
2019-02-27T17:27:54.128Z,3.97
2019-02-27T17:30:38.170Z,4.00
2019-02-27T17:33:05.253Z,3.67
2019-02-27T17:35:32.125Z,3.27
2019-02-27T17:37:58.766Z,3.87
2019-02-27T17:40:25.382Z,3.40
2019-02-27T17:42:53.483Z,3.57
2019-02-27T17:45:21.332Z,4.40
2019-02-27T17:47:47.953Z,4.33
2019-02-27T17:50:15.007Z,3.13
2019-02-27T17:52:41.986Z,3.70
2019-02-27T17:55:09.630Z,4.37
2019-02-27T17:57:35.897Z,3.33
2019-02-27T18:00:04.064Z,3.00
2019-02-27T18:02:33.146Z,4.87
2019-02-27T18:04:59.134Z,3.07
2019-02-27T18:07:34.076Z,5.63
2019-02-27T18:09:53.950Z,4.83
2019-02-27T18:12:21.601Z,4.03
2019-02-27T18:14:47.909Z,5.93
2019-02-27T18:17:14.707Z,4.47
2019-02-27T18:19:41.329Z,2.90
2019-02-27T18:22:07.698Z,4.20
2019-02-27T18:24:34.410Z,3.53
2019-02-27T18:27:00.667Z,4.63
2019-02-27T18:29:26.933Z,3.93
2019-02-27T18:31:53.629Z,3.87
2019-02-27T18:34:21.591Z,3.93
2019-02-27T18:36:48.377Z,4.17
2019-02-27T18:39:14.670Z,4.17
2019-02-27T18:41:41.306Z,4.63
2019-02-27T18:44:08.237Z,4.30
2019-02-27T18:46:34.442Z,4.37
2019-02-27T18:49:00.715Z,4.63
2019-02-27T18:51:29.919Z,3.80
2019-02-27T18:53:56.985Z,5.03
2019-02-27T18:56:23.613Z,3.60
2019-02-27T18:58:51.987Z,3.83
2019-02-27T19:01:18.203Z,4.00
2019-02-27T19:03:44.497Z,3.40
2019-02-27T19:06:12.025Z,4.63
2019-02-27T19:08:39.251Z,6.37
2019-02-27T19:11:05.940Z,7.53
2019-02-27T19:13:32.429Z,4.43
2019-02-27T19:15:58.642Z,4.67
2019-02-27T19:18:25.293Z,3.47
2019-02-27T19:20:51.931Z,3.40
2019-02-27T19:23:18.652Z,4.80
2019-02-27T19:25:44.910Z,4.37
2019-02-27T19:28:11.297Z,4.30
2019-02-27T19:30:38.780Z,5.73
2019-02-27T19:33:07.955Z,5.03
2019-02-27T19:35:34.314Z,4.87
2019-02-27T19:38:00.948Z,6.97
2019-02-27T19:40:30.516Z,3.97
2019-02-27T19:43:00.593Z,4.30
2019-02-27T19:45:27.332Z,5.43
2019-02-27T19:47:55.788Z,5.83
2019-02-27T19:50:22.706Z,5.00
2019-02-27T19:52:49.450Z,4.33
2019-02-27T19:55:16.026Z,4.10
2019-02-27T19:57:43.590Z,4.93
2019-02-27T20:00:22.477Z,4.63
2019-02-27T20:02:48.858Z,3.97
2019-02-27T20:05:16.442Z,3.70
2019-02-27T20:07:43.192Z,4.30
2019-02-27T20:10:14.907Z,4.40
2019-02-27T20:12:41.618Z,3.73
2019-02-27T20:15:11.065Z,3.57
2019-02-27T20:17:38.755Z,4.37
2019-02-27T20:22:50.352Z,5.60
2019-02-27T20:25:19.973Z,6.00
2019-02-27T20:27:46.577Z,6.83
2019-02-27T20:30:14.952Z,4.63
2019-02-27T20:32:41.629Z,4.23
2019-02-27T20:35:09.354Z,4.00
2019-02-27T20:37:37.147Z,4.57
2019-02-27T20:40:06.398Z,3.33
2019-02-27T20:42:32.717Z,4.20
2019-02-27T20:44:59.342Z,4.60
2019-02-27T20:47:25.973Z,4.73
2019-02-27T20:49:52.225Z,3.40
2019-02-27T20:52:19.045Z,4.60
2019-02-27T20:54:45.653Z,4.27
2019-02-27T20:57:11.920Z,4.63
2019-02-27T20:59:38.462Z,5.70
2019-02-27T21:02:05.085Z,4.90
2019-02-27T21:04:32.350Z,5.40
2019-02-27T21:07:00.076Z,3.83
2019-02-27T21:09:26.475Z,3.97
2019-02-27T21:11:52.752Z,5.43
2019-02-27T21:14:20.525Z,5.73
2019-02-27T21:16:48.082Z,3.30
2019-02-27T21:19:14.383Z,3.37
2019-02-27T21:21:41.025Z,5.57
2019-02-27T21:24:07.664Z,4.47
2019-02-27T21:26:33.930Z,4.57
2019-02-27T21:29:00.545Z,3.40
2019-02-27T21:31:27.738Z,5.20
2019-02-27T21:33:54.369Z,7.97
2019-02-27T21:36:21.034Z,3.80
2019-02-27T21:38:50.348Z,4.10
2019-02-27T21:41:16.116Z,4.07
2019-02-27T21:43:42.739Z,3.50
2019-02-27T21:46:11.669Z,3.27
2019-02-27T21:48:37.917Z,3.07
2019-02-27T21:51:04.833Z,2.90
2019-02-27T21:53:31.085Z,3.87
2019-02-27T21:55:58.325Z,3.47
2019-02-27T21:58:24.653Z,3.63
2019-02-27T22:00:51.171Z,3.63
2019-02-27T22:03:17.774Z,3.07
2019-02-27T22:05:45.910Z,2.80
2019-02-27T22:08:12.213Z,4.65
2019-02-27T22:10:41.751Z,3.17
2019-02-27T22:13:10.613Z,2.70
2019-02-27T22:15:36.259Z,2.33
2019-02-27T22:18:02.940Z,4.42
2019-02-27T22:20:29.572Z,4.40
2019-02-27T22:22:56.342Z,4.40
2019-02-27T22:25:22.754Z,3.33
2019-02-27T22:27:49.688Z,4.33
2019-02-27T22:30:17.019Z,3.37
2019-02-27T22:32:47.625Z,3.90
2019-02-27T22:35:12.233Z,3.80
2019-02-27T22:37:39.091Z,4.33
2019-02-27T22:40:08.378Z,3.00
2019-02-27T22:42:34.683Z,3.62
2019-02-27T22:45:04.116Z,2.87
2019-02-27T22:47:29.732Z,2.53
2019-02-27T22:49:56.026Z,4.90
2019-02-27T22:52:22.655Z,4.53
2019-02-27T22:54:48.957Z,2.80
2019-02-27T22:57:15.835Z,3.70
2019-02-27T22:59:42.490Z,4.25
2019-02-27T23:02:09.300Z,6.37
2019-02-27T23:04:36.026Z,3.90
2019-02-27T23:07:02.521Z,2.93
2019-02-27T23:09:29.358Z,3.07
2019-02-27T23:11:56.273Z,4.27
2019-02-27T23:14:22.538Z,4.80
2019-02-27T23:16:49.322Z,4.20
2019-02-27T23:19:16.062Z,3.93
2019-02-27T23:21:42.758Z,7.15
2019-02-27T23:24:10.209Z,5.67
2019-02-27T23:26:37.233Z,5.20
2019-02-27T23:29:05.607Z,4.73
2019-02-27T23:31:32.322Z,5.00
2019-02-27T23:33:59.014Z,4.90
2019-02-27T23:36:25.273Z,4.80
2019-02-27T23:38:51.845Z,3.93
2019-02-27T23:41:22.929Z,4.97
2019-02-27T23:43:46.926Z,3.63
2019-02-27T23:46:15.636Z,3.97
2019-02-27T23:48:41.627Z,3.13
2019-02-27T23:51:07.929Z,4.13
2019-02-27T23:53:35.355Z,4.77
2019-02-27T23:56:01.625Z,5.37
2019-02-27T23:58:29.524Z,7.07
